Time;durP1;ratioP1;P1;durP2;ratioP2;P2;SDS_P1;SDS_P2;PMS_P1;PMS_P2;Temp;Humidity;BMP_temperature;BMP_pressure;BME280_temperature;BME280_humidity;BME280_pressure;Samples;Min_cycle;Max_cycle;Signal;HPM_P1;HPM_P2
2022/11/05 00:10:54;;;;;;;17.00;7.45;;;7.40;99.90;;;;;;5061815;28;20056;-77
2022/11/05 00:16:42;;;;;;;9.20;5.80;;;7.40;99.90;;;;;;5063571;28;20083;-77
2022/11/05 00:19:08;;;;;;;9.73;6.40;;;7.40;99.90;;;;;;5069110;28;20063;-79
2022/11/05 00:27:07;;;;;;;10.18;6.18;;;7.30;99.90;;;;;;5052771;28;20109;-77
2022/11/05 00:29:33;;;;;;;10.68;5.88;;;7.30;99.90;;;;;;5060003;28;20052;-77
2022/11/05 00:31:58;;;;;;;9.95;5.82;;;7.20;99.90;;;;;;5059429;28;20045;-77
2022/11/05 00:34:24;;;;;;;12.85;5.47;;;7.20;99.90;;;;;;5066178;28;20053;-77
2022/11/05 00:36:50;;;;;;;8.65;4.78;;;7.20;99.90;;;;;;5075845;28;20043;-78
2022/11/05 00:39:15;;;;;;;7.78;5.25;;;7.10;99.90;;;;;;5066480;28;20043;-77
2022/11/05 00:41:41;;;;;;;9.05;5.60;;;7.10;99.90;;;;;;5076523;28;20084;-78
2022/11/05 00:49:28;;;;;;;6.13;4.35;;;7.10;99.90;;;;;;5081036;28;20054;-78
2022/11/05 00:49:39;;;;;;;10.60;5.45;;;7.10;99.90;;;;;;5058271;28;20140;-78
2022/11/05 00:54:48;;;;;;;8.82;5.43;;;7.10;99.90;;;;;;5061371;28;20049;-78
2022/11/05 00:57:14;;;;;;;8.55;5.57;;;7.10;99.90;;;;;;5061687;28;20105;-77
2022/11/05 00:59:40;;;;;;;11.93;6.78;;;7.10;99.90;;;;;;5066043;28;20464;-77
2022/11/05 01:02:05;;;;;;;12.55;6.75;;;7.10;99.90;;;;;;5068998;28;20047;-77
2022/11/05 01:04:31;;;;;;;13.80;7.30;;;7.20;99.90;;;;;;5059740;28;20045;-77
2022/11/05 01:06:56;;;;;;;10.90;7.22;;;7.10;99.90;;;;;;5066800;28;20124;-77
2022/11/05 01:09:22;;;;;;;13.25;7.70;;;7.20;99.90;;;;;;5054892;28;20036;-78
2022/11/05 01:11:48;;;;;;;11.07;6.47;;;7.20;99.90;;;;;;5054487;28;20041;-78
2022/11/05 01:14:17;;;;;;;14.75;7.90;;;7.30;99.90;;;;;;5058838;28;20127;-78
2022/11/05 01:16:44;;;;;;;12.05;7.40;;;7.20;99.90;;;;;;5066686;28;20071;-79
2022/11/05 01:19:10;;;;;;;14.05;7.60;;;7.30;99.90;;;;;;5073826;28;20044;-78
2022/11/05 01:21:36;;;;;;;12.07;7.75;;;7.30;99.90;;;;;;5066184;28;20052;-78
2022/11/05 01:24:02;;;;;;;12.27;7.50;;;7.30;99.90;;;;;;5059095;28;20040;-78
2022/11/05 01:26:28;;;;;;;11.98;7.50;;;7.30;99.90;;;;;;5070091;28;20079;-78
2022/11/05 01:28:56;;;;;;;12.48;7.53;;;7.30;99.90;;;;;;5059390;28;20186;-78
2022/11/05 01:31:22;;;;;;;13.65;8.10;;;7.30;99.90;;;;;;5054153;28;20041;-78
2022/11/05 01:33:49;;;;;;;14.00;7.53;;;7.30;99.90;;;;;;5063637;28;20093;-77
2022/11/05 01:36:15;;;;;;;12.13;7.65;;;7.30;99.90;;;;;;5059677;28;20578;-77
2022/11/05 01:38:40;;;;;;;10.82;6.78;;;7.30;99.90;;;;;;5059522;28;20036;-78
2022/11/05 01:41:07;;;;;;;11.60;6.97;;;7.30;99.90;;;;;;5051418;28;20033;-77
2022/11/05 01:43:46;;;;;;;12.80;6.55;;;7.20;99.90;;;;;;5062060;28;20389;-78
2022/11/05 01:46:13;;;;;;;9.95;6.22;;;7.20;99.90;;;;;;5065626;28;20045;-78
2022/11/05 01:48:39;;;;;;;12.82;5.97;;;7.20;99.90;;;;;;5062377;28;20048;-77
2022/11/05 01:51:12;;;;;;;9.93;6.00;;;7.20;99.90;;;;;;5057607;28;20520;-77
2022/11/05 01:53:42;;;;;;;9.90;6.15;;;7.10;99.90;;;;;;5069657;28;20048;-78
2022/11/05 01:56:17;;;;;;;10.82;6.20;;;7.10;99.90;;;;;;5061707;28;20094;-78
2022/11/05 01:58:53;;;;;;;11.65;6.40;;;7.00;99.90;;;;;;5064179;28;20055;-78
2022/11/05 02:01:19;;;;;;;11.73;6.25;;;7.00;99.90;;;;;;5055861;28;20119;-78
2022/11/05 02:03:48;;;;;;;10.00;6.15;;;7.00;99.90;;;;;;5066063;28;20123;-77
2022/11/05 02:06:16;;;;;;;9.95;6.63;;;7.00;99.90;;;;;;5068977;28;20076;-78
2022/11/05 02:09:11;;;;;;;10.25;5.70;;;7.00;99.90;;;;;;5065307;28;20106;-78
2022/11/05 02:11:37;;;;;;;12.20;6.28;;;7.00;99.90;;;;;;5047947;28;20059;-77
2022/11/05 02:14:03;;;;;;;11.57;6.10;;;6.90;99.90;;;;;;5074081;28;20395;-77
2022/11/05 02:16:55;;;;;;;9.70;5.78;;;6.90;99.90;;;;;;5062626;28;20123;-78
2022/11/05 02:19:23;;;;;;;8.95;5.90;;;6.90;99.90;;;;;;5063387;28;20142;-78
2022/11/05 02:21:52;;;;;;;8.82;5.60;;;6.90;99.90;;;;;;5078305;28;20384;-78
2022/11/05 02:24:39;;;;;;;9.65;5.93;;;6.90;99.90;;;;;;5067913;28;20126;-77
2022/11/05 02:27:14;;;;;;;10.45;6.00;;;6.90;99.90;;;;;;5057291;28;20032;-78
2022/11/05 02:30:18;;;;;;;8.35;5.40;;;6.90;99.90;;;;;;5053294;28;20049;-78
2022/11/05 02:33:15;;;;;;;9.45;5.70;;;6.90;99.90;;;;;;5064345;28;20047;-78
2022/11/05 02:36:03;;;;;;;10.50;5.40;;;6.80;99.90;;;;;;5048637;28;20123;-78
2022/11/05 02:38:41;;;;;;;9.90;4.60;;;6.80;99.90;;;;;;5069830;28;20069;-78
2022/11/05 02:41:28;;;;;;;8.88;5.00;;;6.70;99.90;;;;;;5066639;28;20094;-77
2022/11/05 02:44:12;;;;;;;8.57;5.43;;;6.70;99.90;;;;;;5067680;28;20052;-78
2022/11/05 02:47:16;;;;;;;7.25;4.85;;;6.70;99.90;;;;;;5052813;28;20373;-78
2022/11/05 02:50:17;;;;;;;6.05;4.50;;;6.60;99.90;;;;;;5033741;28;20386;-78
2022/11/05 02:52:59;;;;;;;7.65;4.72;;;6.50;99.90;;;;;;5058408;28;20040;-77
2022/11/05 02:55:39;;;;;;;10.60;5.05;;;6.50;99.90;;;;;;5073392;28;20059;-77
2022/11/05 02:58:05;;;;;;;7.45;4.63;;;6.60;99.90;;;;;;5064623;28;20178;-77
2022/11/05 03:00:45;;;;;;;11.98;4.70;;;6.60;99.90;;;;;;5062585;28;20181;-77
2022/11/05 03:03:35;;;;;;;9.73;4.28;;;6.70;99.90;;;;;;5078963;28;20039;-77
2022/11/05 03:06:19;;;;;;;10.10;4.38;;;6.70;99.90;;;;;;5074836;28;20048;-77
2022/11/05 03:08:48;;;;;;;9.18;3.90;;;6.70;99.90;;;;;;5070361;28;20075;-77
2022/11/05 03:11:18;;;;;;;5.80;3.63;;;6.70;99.90;;;;;;5074536;28;20044;-77
2022/11/05 03:13:58;;;;;;;7.90;4.05;;;6.70;99.90;;;;;;5074434;28;20488;-77
2022/11/05 03:16:41;;;;;;;6.65;3.92;;;6.60;99.90;;;;;;5074083;28;20047;-77
2022/11/05 03:19:19;;;;;;;11.13;4.82;;;6.60;99.90;;;;;;5070702;28;20049;-81
2022/11/05 03:21:51;;;;;;;10.27;4.55;;;6.60;99.90;;;;;;5068514;28;20396;-77
2022/11/05 03:24:25;;;;;;;8.32;4.40;;;6.60;99.90;;;;;;5068274;28;20070;-77
2022/11/05 03:27:08;;;;;;;7.38;4.20;;;6.60;99.90;;;;;;5077130;28;20048;-77
2022/11/05 03:29:43;;;;;;;8.95;4.43;;;6.60;99.90;;;;;;5070940;28;20112;-77
2022/11/05 03:32:10;;;;;;;10.30;4.53;;;6.60;99.90;;;;;;5062893;28;20051;-77
2022/11/05 03:34:41;;;;;;;8.13;4.97;;;6.60;99.90;;;;;;5072796;28;20514;-77
2022/11/05 03:37:09;;;;;;;7.68;4.18;;;6.50;99.90;;;;;;5051965;28;20048;-77
2022/11/05 03:39:42;;;;;;;5.72;3.90;;;6.40;99.90;;;;;;5063237;28;20053;-77
2022/11/05 03:42:13;;;;;;;7.05;3.40;;;6.50;99.90;;;;;;5067108;28;20403;-77
2022/11/05 03:44:44;;;;;;;6.65;3.42;;;6.40;99.90;;;;;;5075660;28;20059;-77
2022/11/05 03:47:17;;;;;;;9.18;4.30;;;6.30;99.90;;;;;;5048876;28;20067;-77
2022/11/05 03:49:57;;;;;;;5.82;3.40;;;6.30;99.90;;;;;;5059796;28;20055;-78
2022/11/05 03:52:31;;;;;;;6.60;3.67;;;6.30;99.90;;;;;;5073482;28;20127;-77
2022/11/05 03:54:56;;;;;;;8.82;4.10;;;6.30;99.90;;;;;;5060473;28;20053;-77
2022/11/05 03:57:30;;;;;;;8.52;4.50;;;6.30;99.90;;;;;;5072838;28;20044;-78
2022/11/05 03:59:56;;;;;;;5.97;4.05;;;6.30;99.90;;;;;;5061201;28;20036;-77
2022/11/05 04:02:24;;;;;;;8.00;4.13;;;6.30;99.90;;;;;;5063491;28;20041;-78
2022/11/05 04:04:51;;;;;;;6.20;4.07;;;6.30;99.90;;;;;;5070273;28;20543;-77
2022/11/05 04:17:05;;;;;;;7.43;3.60;;;6.30;99.90;;;;;;5054689;28;20053;-78
2022/11/05 04:18:19;;;;;;;9.07;4.13;;;6.20;99.90;;;;;;5068221;28;20055;-77
2022/11/05 04:26:13;;;;;;;7.47;4.00;;;6.20;99.90;;;;;;5058386;28;20049;-77
2022/11/05 04:31:23;;;;;;;7.47;4.35;;;6.20;99.90;;;;;;5059500;28;20052;-77
2022/11/05 04:33:48;;;;;;;8.27;4.38;;;6.30;99.90;;;;;;5050072;28;20446;-78
2022/11/05 04:36:14;;;;;;;6.82;3.60;;;6.30;99.90;;;;;;5054519;28;20037;-77
2022/11/05 04:38:39;;;;;;;6.10;4.35;;;6.30;99.90;;;;;;5050996;28;20040;-77
2022/11/05 04:41:15;;;;;;;10.02;4.50;;;6.30;99.90;;;;;;5054783;28;20040;-77
2022/11/05 04:43:42;;;;;;;8.38;3.92;;;6.30;99.90;;;;;;5059934;28;20052;-77
2022/11/05 04:46:07;;;;;;;7.35;4.20;;;6.30;99.90;;;;;;5063712;28;20044;-77
2022/11/05 04:48:33;;;;;;;10.25;3.70;;;6.20;99.90;;;;;;5057995;28;20037;-77
2022/11/05 04:50:59;;;;;;;7.78;4.00;;;6.20;99.90;;;;;;5056585;28;20411;-77
2022/11/05 04:53:25;;;;;;;6.35;4.22;;;6.20;99.90;;;;;;5059922;28;20041;-77
2022/11/05 04:55:50;;;;;;;5.60;3.88;;;6.20;99.90;;;;;;5060220;28;20484;-77
2022/11/05 04:58:16;;;;;;;9.38;3.88;;;6.20;99.90;;;;;;5066676;28;20507;-77
2022/11/05 05:00:42;;;;;;;7.22;4.22;;;6.10;99.90;;;;;;5065394;28;20424;-77
2022/11/05 05:03:07;;;;;;;6.13;4.05;;;6.10;99.90;;;;;;5063616;28;20044;-76
2022/11/05 05:05:33;;;;;;;8.63;4.00;;;6.10;99.90;;;;;;5046668;28;20048;-77
2022/11/05 05:08:05;;;;;;;7.10;4.20;;;6.10;99.90;;;;;;5059751;28;20813;-77
2022/11/05 05:10:31;;;;;;;7.47;4.50;;;6.10;99.90;;;;;;5046528;28;20481;-77
2022/11/05 05:12:57;;;;;;;8.55;4.50;;;6.10;99.90;;;;;;5047768;28;20063;-78
2022/11/05 05:15:22;;;;;;;7.15;4.50;;;6.10;99.90;;;;;;5067595;28;20040;-77
2022/11/05 05:17:52;;;;;;;9.35;4.40;;;6.10;99.90;;;;;;5046857;28;20037;-77
2022/11/05 05:23:02;;;;;;;6.07;4.53;;;6.00;99.90;;;;;;5061568;28;20384;-77
2022/11/05 05:25:28;;;;;;;7.43;4.45;;;6.10;99.90;;;;;;5070806;28;20054;-77
2022/11/05 05:27:58;;;;;;;7.93;4.90;;;6.00;99.90;;;;;;5069539;28;20109;-77
2022/11/05 05:30:24;;;;;;;8.50;4.90;;;6.20;99.90;;;;;;5056020;28;20041;-77
2022/11/05 05:32:50;;;;;;;8.97;5.17;;;6.10;99.90;;;;;;5054383;28;20063;-77
2022/11/05 05:35:16;;;;;;;8.23;4.82;;;6.10;99.90;;;;;;5080734;28;20422;-77
2022/11/05 05:37:42;;;;;;;8.82;5.45;;;6.10;99.90;;;;;;5069829;28;20467;-78
2022/11/05 05:40:08;;;;;;;9.90;5.07;;;6.10;99.90;;;;;;5072937;28;20047;-77
2022/11/05 05:42:34;;;;;;;10.98;5.38;;;6.10;99.90;;;;;;5067848;28;20084;-78
2022/11/05 05:45:00;;;;;;;9.27;4.82;;;6.10;99.90;;;;;;5076412;28;20102;-78
2022/11/05 05:47:25;;;;;;;9.57;5.43;;;6.10;99.90;;;;;;5059133;28;20059;-78
2022/11/05 05:49:51;;;;;;;6.78;4.88;;;6.10;99.90;;;;;;5070575;28;20088;-79
2022/11/05 05:52:17;;;;;;;8.57;5.38;;;6.10;99.90;;;;;;5066661;28;20487;-78
2022/11/05 05:54:42;;;;;;;8.15;5.03;;;6.10;99.90;;;;;;5071581;28;20450;-79
2022/11/05 05:57:08;;;;;;;8.77;5.43;;;6.10;99.90;;;;;;5074900;28;20048;-78
2022/11/05 05:59:34;;;;;;;7.78;5.25;;;6.10;99.90;;;;;;5058001;28;20274;-78
2022/11/05 06:01:59;;;;;;;10.07;5.63;;;6.10;99.90;;;;;;5071538;28;20449;-78
2022/11/05 06:04:25;;;;;;;9.05;5.57;;;6.10;99.90;;;;;;5075435;28;20044;-78
2022/11/05 06:06:51;;;;;;;9.32;6.20;;;6.10;99.90;;;;;;5065007;28;20182;-78
2022/11/05 06:09:16;;;;;;;11.82;6.10;;;6.10;99.90;;;;;;5070424;28;20135;-78
2022/11/05 06:11:42;;;;;;;8.70;5.55;;;6.00;99.90;;;;;;5063527;28;20112;-78
2022/11/05 06:14:12;;;;;;;10.43;5.88;;;6.10;99.90;;;;;;5073436;28;20047;-78
2022/11/05 06:16:38;;;;;;;10.27;5.57;;;6.10;99.90;;;;;;5056714;28;20127;-78
2022/11/05 06:19:08;;;;;;;11.20;5.40;;;6.00;99.90;;;;;;5073568;28;20041;-78
2022/11/05 06:21:34;;;;;;;9.82;6.07;;;6.00;99.90;;;;;;5058128;28;20303;-78
2022/11/05 06:24:01;;;;;;;9.40;5.80;;;6.00;99.90;;;;;;5059951;28;20186;-77
2022/11/05 06:26:27;;;;;;;11.70;6.20;;;5.90;99.90;;;;;;5064362;28;20496;-77
2022/11/05 06:28:52;;;;;;;12.35;6.13;;;6.00;99.90;;;;;;5054069;28;20059;-78
2022/11/05 06:31:18;;;;;;;12.32;6.85;;;6.00;99.90;;;;;;5049609;28;20476;-78
2022/11/05 06:33:44;;;;;;;11.05;6.35;;;6.00;99.90;;;;;;5061201;28;20093;-78
2022/11/05 06:36:16;;;;;;;11.40;5.97;;;6.00;99.90;;;;;;5084680;28;20051;-78
2022/11/05 06:38:42;;;;;;;10.25;6.95;;;6.00;99.90;;;;;;5070072;28;20044;-78
2022/11/05 06:41:07;;;;;;;15.68;6.82;;;6.00;99.90;;;;;;5061411;28;20047;-79
2022/11/05 06:43:33;;;;;;;10.35;7.00;;;6.10;99.90;;;;;;5061243;28;20147;-78
2022/11/05 06:46:00;;;;;;;11.60;6.80;;;6.10;99.90;;;;;;5077745;28;20044;-78
2022/11/05 06:48:27;;;;;;;9.43;7.00;;;6.10;99.90;;;;;;5059638;28;20053;-78
2022/11/05 06:50:53;;;;;;;11.35;6.97;;;6.10;99.90;;;;;;5050824;28;20037;-77
2022/11/05 06:53:20;;;;;;;14.05;6.55;;;6.10;99.90;;;;;;5071320;28;20089;-78
2022/11/05 06:55:49;;;;;;;10.65;6.93;;;6.10;99.90;;;;;;5063509;28;20464;-78
2022/11/05 06:58:15;;;;;;;10.05;7.15;;;6.10;99.90;;;;;;5061815;28;20550;-79
2022/11/05 07:00:40;;;;;;;11.18;7.05;;;6.20;99.90;;;;;;5080036;28;20443;-78
2022/11/05 07:03:08;;;;;;;14.10;7.25;;;6.20;99.90;;;;;;5057022;28;20040;-79
2022/11/05 07:05:42;;;;;;;12.18;7.38;;;6.20;99.90;;;;;;5062863;28;20101;-78
2022/11/05 07:08:08;;;;;;;10.15;7.15;;;6.20;99.90;;;;;;5066319;28;20425;-78
2022/11/05 07:10:33;;;;;;;19.35;7.50;;;6.30;99.90;;;;;;5056679;28;20048;-79
2022/11/05 07:12:59;;;;;;;13.70;7.55;;;6.30;99.90;;;;;;5060021;28;20080;-78
2022/11/05 07:15:25;;;;;;;11.13;7.30;;;6.30;99.90;;;;;;5066877;28;20085;-78
2022/11/05 07:17:56;;;;;;;11.80;6.80;;;6.30;99.90;;;;;;5063910;28;20470;-81
2022/11/05 07:20:22;;;;;;;11.32;7.03;;;6.40;99.90;;;;;;5053599;28;20055;-79
2022/11/05 07:22:47;;;;;;;10.73;6.68;;;6.40;99.90;;;;;;5065611;28;20044;-79
2022/11/05 07:25:13;;;;;;;11.48;6.70;;;6.50;99.90;;;;;;5062431;28;20033;-79
2022/11/05 07:27:39;;;;;;;11.15;7.13;;;6.50;99.90;;;;;;5063108;28;20083;-79
2022/11/05 07:30:08;;;;;;;11.45;6.47;;;6.50;99.90;;;;;;5063700;28;20515;-79
2022/11/05 07:32:40;;;;;;;10.95;7.47;;;6.60;99.90;;;;;;5057935;28;20078;-79
2022/11/05 07:35:07;;;;;;;11.60;6.47;;;6.60;99.90;;;;;;5064668;28;20047;-79
2022/11/05 07:37:44;;;;;;;12.50;7.35;;;6.60;99.90;;;;;;5062500;28;20047;-79
2022/11/05 07:40:11;;;;;;;9.23;5.88;;;6.60;99.90;;;;;;5059392;28;20032;-79
2022/11/05 07:42:42;;;;;;;12.25;7.00;;;6.60;99.90;;;;;;5066869;28;20056;-79
2022/11/05 07:45:09;;;;;;;10.48;6.13;;;6.50;99.90;;;;;;5063709;28;20503;-79
2022/11/05 07:47:44;;;;;;;10.40;6.05;;;6.60;99.90;;;;;;5063492;28;20049;-79
2022/11/05 07:50:13;;;;;;;8.93;7.00;;;6.70;99.90;;;;;;5072508;28;20040;-79
2022/11/05 07:52:39;;;;;;;9.90;6.82;;;6.70;99.90;;;;;;5071606;28;20128;-79
2022/11/05 07:55:05;;;;;;;9.85;7.05;;;6.80;99.90;;;;;;5052792;28;20115;-78
2022/11/05 07:57:31;;;;;;;11.75;6.93;;;6.80;99.90;;;;;;5059705;28;20044;-79
2022/11/05 07:59:56;;;;;;;9.52;6.82;;;6.90;99.90;;;;;;5054381;28;20041;-79
2022/11/05 08:02:22;;;;;;;11.85;7.40;;;7.00;99.90;;;;;;5062411;28;20043;-78
2022/11/05 08:04:48;;;;;;;13.60;8.00;;;7.00;99.90;;;;;;5068832;28;20054;-79
2022/11/05 08:07:14;;;;;;;12.38;8.18;;;7.10;99.90;;;;;;5059881;28;20075;-79
2022/11/05 08:09:40;;;;;;;13.07;8.23;;;7.20;99.90;;;;;;5069196;28;20135;-80
2022/11/05 08:12:06;;;;;;;11.15;8.55;;;7.20;99.90;;;;;;5063099;28;20048;-75
2022/11/05 08:14:32;;;;;;;11.77;8.32;;;7.30;99.90;;;;;;5072968;28;20562;-77
2022/11/05 08:16:57;;;;;;;13.02;7.70;;;7.40;99.90;;;;;;5068565;28;20135;-81
2022/11/05 08:19:23;;;;;;;12.68;8.32;;;7.50;99.90;;;;;;5067742;28;20040;-76
2022/11/05 08:21:49;;;;;;;12.77;7.40;;;7.60;99.90;;;;;;5069359;28;20051;-79
2022/11/05 08:24:14;;;;;;;10.95;7.78;;;7.60;99.90;;;;;;5061277;28;20102;-79
2022/11/05 08:26:40;;;;;;;10.88;7.85;;;7.60;99.90;;;;;;5061296;28;20041;-78
2022/11/05 08:29:06;;;;;;;10.57;7.93;;;7.70;99.90;;;;;;5062669;28;20066;-78
2022/11/05 08:31:31;;;;;;;9.02;6.95;;;7.70;99.90;;;;;;5058776;28;20138;-79
2022/11/05 08:33:57;;;;;;;10.60;8.00;;;7.70;99.90;;;;;;5067297;28;20119;-78
2022/11/05 08:36:22;;;;;;;12.00;8.10;;;7.80;99.90;;;;;;5071120;28;20052;-78
2022/11/05 08:38:48;;;;;;;13.18;8.23;;;7.80;99.90;;;;;;5064779;28;20064;-80
2022/11/05 08:41:14;;;;;;;12.15;8.25;;;7.90;99.90;;;;;;5058913;28;20077;-79
2022/11/05 08:43:39;;;;;;;11.35;7.80;;;8.00;99.90;;;;;;5053547;28;20044;-79
2022/11/05 08:46:05;;;;;;;11.57;7.93;;;8.00;99.90;;;;;;5060219;28;20044;-79
2022/11/05 08:48:30;;;;;;;17.73;9.13;;;8.10;99.90;;;;;;5091813;28;20044;-77
2022/11/05 08:50:59;;;;;;;13.07;8.30;;;8.20;99.90;;;;;;5080394;28;20075;-81
2022/11/05 08:53:24;;;;;;;11.20;8.20;;;8.30;99.90;;;;;;5066156;28;20049;-79
2022/11/05 08:55:50;;;;;;;11.43;7.63;;;8.30;99.90;;;;;;5071652;28;20518;-80
2022/11/05 08:58:16;;;;;;;10.57;8.00;;;8.30;99.90;;;;;;5054289;28;20043;-79
2022/11/05 09:00:44;;;;;;;11.85;8.38;;;8.40;99.90;;;;;;5060769;28;20037;-81
2022/11/05 09:03:10;;;;;;;10.15;7.88;;;8.40;99.90;;;;;;5071254;28;20051;-81
2022/11/05 09:05:38;;;;;;;11.88;7.72;;;8.50;99.90;;;;;;5076063;28;20051;-80
2022/11/05 09:08:04;;;;;;;;;;;8.50;99.90;;;;;;5077386;28;20044;-78
2022/11/05 09:10:30;;;;;;;10.65;7.65;;;8.60;99.90;;;;;;5071925;28;19973;-79
2022/11/05 09:12:55;;;;;;;8.10;7.30;;;8.70;99.90;;;;;;5070418;28;20044;-80
2022/11/05 09:15:22;;;;;;;12.57;8.02;;;8.70;99.90;;;;;;5070746;28;20037;-79
2022/11/05 09:17:47;;;;;;;11.27;7.57;;;8.80;99.90;;;;;;5071438;28;20062;-77
2022/11/05 09:20:13;;;;;;;12.00;7.63;;;8.80;99.90;;;;;;5076343;28;20040;-76
2022/11/05 09:22:39;;;;;;;8.25;7.35;;;8.80;99.90;;;;;;5074782;28;20033;-82
2022/11/05 09:25:06;;;;;;;11.20;7.78;;;8.90;99.90;;;;;;5078626;28;20050;-79
2022/11/05 09:27:31;;;;;;;13.45;7.50;;;8.90;99.90;;;;;;5087203;28;20522;-79
2022/11/05 09:29:57;;;;;;;7.90;7.07;;;9.00;99.90;;;;;;5082461;28;20150;-84
2022/11/05 09:32:22;;;;;;;9.63;7.07;;;9.00;99.90;;;;;;5079498;28;20060;-79
2022/11/05 09:34:48;;;;;;;10.05;7.63;;;9.00;99.90;;;;;;5072376;28;20129;-80
2022/11/05 09:37:15;;;;;;;12.82;7.78;;;9.00;99.90;;;;;;5075375;28;20040;-80
2022/11/05 09:39:40;;;;;;;9.63;6.65;;;9.00;99.90;;;;;;5071459;28;20041;-81
2022/11/05 09:42:08;;;;;;;10.60;7.53;;;9.10;99.90;;;;;;5061548;28;20133;-82
2022/11/05 09:45:00;;;;;;;10.02;7.78;;;9.20;99.90;;;;;;5077621;28;20049;-77
2022/11/05 09:47:31;;;;;;;11.65;7.10;;;9.20;99.90;;;;;;5080916;28;20090;-81
2022/11/05 09:49:59;;;;;;;9.50;7.47;;;9.30;99.90;;;;;;5089420;28;20402;-81
2022/11/05 09:52:27;;;;;;;10.07;7.35;;;9.30;99.90;;;;;;5086264;28;20048;-81
2022/11/05 09:54:54;;;;;;;9.63;7.13;;;9.40;99.90;;;;;;5087491;28;20132;-81
2022/11/05 09:57:28;;;;;;;9.95;7.43;;;9.40;99.90;;;;;;5090335;28;20514;-81
2022/11/05 09:59:58;;;;;;;9.60;6.70;;;9.50;99.90;;;;;;5117443;27;20119;-81
2022/11/05 10:02:32;;;;;;;10.57;6.93;;;9.50;99.90;;;;;;5078671;28;20129;-80
2022/11/05 10:05:02;;;;;;;11.07;6.97;;;9.50;99.90;;;;;;5080252;28;20064;-78
2022/11/05 10:07:33;;;;;;;11.50;7.68;;;9.50;99.90;;;;;;5081791;28;20125;-80
2022/11/05 10:10:03;;;;;;;9.88;7.10;;;9.50;99.90;;;;;;5072598;28;20052;-81
2022/11/05 10:12:42;;;;;;;9.23;7.28;;;9.60;99.90;;;;;;5068763;28;20075;-80
2022/11/05 10:15:23;;;;;;;9.60;6.90;;;9.70;99.90;;;;;;5086013;28;20074;-83
2022/11/05 10:18:03;;;;;;;9.55;7.55;;;9.70;99.90;;;;;;5077400;28;20044;-80
2022/11/05 10:20:36;;;;;;;9.35;8.00;;;9.80;99.90;;;;;;5060718;28;20093;-85
2022/11/05 10:23:19;;;;;;;9.65;7.60;;;9.80;99.90;;;;;;5074815;28;20048;-78
2022/11/05 10:26:05;;;;;;;10.45;7.93;;;10.00;99.90;;;;;;5069915;28;20084;-80
2022/11/05 10:28:32;;;;;;;12.07;7.88;;;10.00;99.90;;;;;;5075748;28;20173;-82
2022/11/05 10:31:10;;;;;;;;;;;10.00;99.90;;;;;;5063998;28;20505;-81
2022/11/05 10:33:54;;;;;;;11.00;7.45;;;10.00;99.90;;;;;;5069090;28;19970;-80
2022/11/05 10:36:31;;;;;;;8.48;7.22;;;10.10;99.90;;;;;;5065487;28;20056;-81
2022/11/05 10:39:14;;;;;;;9.50;7.00;;;10.20;99.90;;;;;;5058259;28;20036;-82
2022/11/05 10:41:52;;;;;;;12.80;6.88;;;10.20;99.90;;;;;;5075616;28;20052;-85
2022/11/05 10:44:20;;;;;;;11.05;6.68;;;10.20;99.90;;;;;;5079438;28;20089;-83
2022/11/05 10:47:29;;;;;;;8.52;6.60;;;10.30;99.90;;;;;;5077247;28;20530;-80
2022/11/05 10:50:00;;;;;;;8.55;7.13;;;10.30;99.90;;;;;;5083600;28;20495;-80
2022/11/05 10:52:58;;;;;;;10.25;6.72;;;10.40;99.90;;;;;;5072129;28;20048;-79
2022/11/05 10:55:50;;;;;;;9.80;6.90;;;10.50;99.90;;;;;;5064627;28;20185;-79
2022/11/05 10:58:16;;;;;;;9.45;6.57;;;10.60;99.90;;;;;;5047965;28;20041;-77
2022/11/05 11:00:50;;;;;;;10.85;6.70;;;10.70;99.90;;;;;;5075269;28;20048;-88
2022/11/05 11:03:37;;;;;;;12.38;6.68;;;10.60;99.90;;;;;;5082932;28;20050;-79
2022/11/05 11:06:11;;;;;;;9.48;6.40;;;10.60;99.90;;;;;;5066091;28;20474;-87
2022/11/05 11:08:36;;;;;;;9.93;6.70;;;10.70;99.90;;;;;;5071070;28;20041;-85
2022/11/05 11:11:09;;;;;;;10.20;6.72;;;10.70;99.90;;;;;;5054644;28;20044;-87
2022/11/05 11:13:59;;;;;;;12.20;6.65;;;10.70;99.90;;;;;;5058506;28;20413;-83
2022/11/05 11:16:27;;;;;;;9.38;6.78;;;10.60;99.90;;;;;;5095387;27;20188;-87
2022/11/05 11:18:55;;;;;;;10.93;6.30;;;10.70;99.90;;;;;;5088518;28;20388;-85
2022/11/05 11:21:22;;;;;;;11.15;6.85;;;10.70;99.90;;;;;;5080354;28;20356;-86
2022/11/05 11:24:05;;;;;;;8.77;6.93;;;10.80;99.90;;;;;;5073012;28;20054;-86
2022/11/05 11:26:39;;;;;;;9.90;6.75;;;10.70;99.90;;;;;;5100724;28;20044;-86
2022/11/05 11:29:25;;;;;;;11.15;6.95;;;10.70;99.90;;;;;;5078065;28;20040;-78
2022/11/05 11:31:56;;;;;;;11.48;7.43;;;10.80;99.90;;;;;;5074258;28;20044;-80
2022/11/05 11:34:32;;;;;;;8.38;7.05;;;10.80;99.90;;;;;;5065442;28;20435;-86
2022/11/05 11:37:26;;;;;;;10.52;6.60;;;10.90;99.90;;;;;;5087660;28;20078;-81
2022/11/05 11:40:16;;;;;;;11.73;6.78;;;10.90;99.90;;;;;;5086106;28;20068;-83
2022/11/05 11:42:46;;;;;;;12.85;6.80;;;11.00;99.90;;;;;;5079459;28;20051;-80
2022/11/05 11:45:19;;;;;;;10.63;5.95;;;11.00;99.90;;;;;;5082417;28;20051;-87
2022/11/05 11:47:47;;;;;;;10.95;5.60;;;11.10;99.90;;;;;;5070121;28;20048;-85
2022/11/05 11:50:39;;;;;;;8.90;5.55;;;11.10;99.90;;;;;;5071019;28;20048;-80
2022/11/05 11:53:18;;;;;;;11.43;6.00;;;11.20;99.90;;;;;;5086196;28;20039;-78
2022/11/05 11:55:56;;;;;;;8.75;5.20;;;11.30;99.90;;;;;;5084651;28;20832;-82
2022/11/05 11:58:24;;;;;;;9.70;5.53;;;11.40;99.90;;;;;;5071894;28;20074;-82
2022/11/05 12:01:00;;;;;;;11.32;5.80;;;11.40;99.90;;;;;;5072749;28;20190;-79
2022/11/05 12:03:46;;;;;;;11.48;5.60;;;11.50;99.90;;;;;;5063575;28;20052;-73
2022/11/05 12:06:38;;;;;;;12.25;5.68;;;11.50;99.90;;;;;;5059065;28;20224;-84
2022/11/05 12:09:03;;;;;;;11.02;5.32;;;11.50;99.90;;;;;;5057858;28;20476;-81
2022/11/05 12:11:41;;;;;;;8.15;5.28;;;11.50;99.90;;;;;;5057960;28;20050;-86
2022/11/05 12:14:32;;;;;;;8.63;5.45;;;11.50;99.90;;;;;;5064478;28;20642;-81
2022/11/05 12:17:07;;;;;;;10.93;5.55;;;11.60;99.90;;;;;;5060171;28;20471;-82
2022/11/05 12:19:51;;;;;;;8.63;5.22;;;11.50;99.90;;;;;;5069575;28;20036;-81
2022/11/05 12:22:28;;;;;;;11.40;5.90;;;11.50;99.90;;;;;;5071583;28;20040;-82
2022/11/05 12:25:17;;;;;;;10.77;5.18;;;11.50;99.90;;;;;;5074276;28;20040;-82
2022/11/05 12:27:54;;;;;;;11.45;5.95;;;11.50;99.90;;;;;;5068091;28;20469;-82
2022/11/05 12:30:21;;;;;;;9.45;5.18;;;11.60;99.90;;;;;;5074473;28;20044;-79
2022/11/05 12:33:04;;;;;;;11.68;5.35;;;11.50;99.90;;;;;;5079430;28;20036;-80
2022/11/05 12:36:14;;;;;;;10.85;6.30;;;11.50;99.90;;;;;;5054452;28;20131;-80
2022/11/05 12:38:42;;;;;;;9.15;6.03;;;11.60;99.90;;;;;;5066712;28;20045;-86
2022/11/05 12:41:38;;;;;;;11.27;6.55;;;11.60;99.90;;;;;;5066118;28;20052;-86
2022/11/05 12:44:35;;;;;;;12.18;5.53;;;11.60;99.90;;;;;;5067045;28;20052;-86
2022/11/05 12:47:35;;;;;;;9.55;5.70;;;11.60;99.90;;;;;;5063916;28;20455;-78
2022/11/05 12:50:16;;;;;;;10.07;5.85;;;11.60;99.90;;;;;;5070755;28;20111;-81
2022/11/05 12:53:03;;;;;;;13.15;6.45;;;11.50;99.90;;;;;;5060731;28;20499;-82
2022/11/05 12:55:37;;;;;;;9.13;5.95;;;11.60;99.90;;;;;;5062087;28;20048;-79
2022/11/05 12:58:26;;;;;;;9.77;5.85;;;11.60;99.90;;;;;;5067298;28;20388;-79
2022/11/05 13:00:57;;;;;;;11.15;6.05;;;11.60;99.90;;;;;;5066973;28;20140;-79
2022/11/05 13:03:41;;;;;;;10.00;6.20;;;11.60;99.90;;;;;;5064865;28;20496;-80
2022/11/05 13:06:20;;;;;;;9.38;6.07;;;11.60;99.90;;;;;;5067509;28;20052;-80
2022/11/05 13:08:49;;;;;;;10.00;5.90;;;11.60;99.90;;;;;;5062666;28;20598;-79
2022/11/05 13:11:20;;;;;;;12.18;6.30;;;11.60;99.90;;;;;;5051690;28;20051;-81
2022/11/05 13:14:09;;;;;;;9.38;6.28;;;11.60;99.90;;;;;;5063293;28;20067;-89
2022/11/05 13:16:45;;;;;;;10.77;6.35;;;11.60;99.90;;;;;;5073419;28;20060;-83
2022/11/05 13:19:28;;;;;;;11.60;6.43;;;11.60;99.90;;;;;;5071742;28;20043;-84
2022/11/05 13:22:06;;;;;;;12.45;6.88;;;11.60;99.90;;;;;;5053475;28;20059;-82
2022/11/05 13:24:46;;;;;;;9.88;6.85;;;11.60;99.90;;;;;;5069676;28;20058;-84
2022/11/05 13:27:42;;;;;;;11.25;7.25;;;11.60;99.90;;;;;;5066549;28;20041;-80
2022/11/05 13:30:14;;;;;;;13.73;7.63;;;11.60;99.90;;;;;;5061360;28;20041;-80
2022/11/05 13:32:45;;;;;;;14.90;7.75;;;11.60;99.90;;;;;;5083099;28;20040;-87
2022/11/05 13:35:19;;;;;;;12.15;7.55;;;11.60;99.90;;;;;;5075105;28;20522;-88
2022/11/05 13:40:53;;;;;;;11.88;7.65;;;11.60;99.90;;;;;;5074428;28;20052;-87
2022/11/05 13:43:19;;;;;;;13.27;7.68;;;11.60;99.90;;;;;;5085009;28;20039;-88
2022/11/05 13:46:03;;;;;;;10.07;7.10;;;11.60;99.90;;;;;;5086972;28;20051;-88
2022/11/05 13:48:37;;;;;;;11.38;6.55;;;11.60;99.90;;;;;;5086059;28;20036;-87
2022/11/05 13:51:05;;;;;;;15.00;8.15;;;11.60;99.90;;;;;;5080946;28;20097;-87
2022/11/05 13:54:11;;;;;;;11.93;8.63;;;11.60;99.90;;;;;;5092177;28;20036;-87
2022/11/05 13:56:46;;;;;;;13.50;9.00;;;11.60;99.90;;;;;;5088076;28;20044;-86
2022/11/05 13:59:30;;;;;;;11.13;8.35;;;11.50;99.90;;;;;;5068092;28;20130;-87